Aeroporto :
LOGIN :

Iscrizione | Disclaimer

   EN    FR    IT 

 










Sommario :    VFR   VFR Marginale   IFR   IFR Intensivo   IFR Molto Intensivo
Visibilità : 
Base nubi : 
>= 8 km
>= 3000ft
5 / 8 km
1000 / 3000 ft
1500m / 5 km
500 / 1000 ft
800 / 1500m
200 / 500 ft
< 800m
< 200 ft
Simboli :   Temporali  Nebbia  Neve Forte  Precipitazioni Forti  Vento > 20 kt
SIGMETs :   Varie  Temporali  Ghiacco  Turbolenza  Onda orograficha  Ceneri Vulcaniche






- Altitudine del aeroporto : 147 ft
- Codice IATA : DUS


EDDL - Düsseldorf Int.

ULTIMO METAR :
  • 212350Z 35008KT 0250 R23R/0600N R23L/0650N FZFG NSC M03/M03 Q1039 NOSIG

METARs OBSOLETI :
  • 212320Z VRB01KT 3000 0200NE R23R/0700VP2000D R23L/P2000N BCFG BR BKN001 M03/M04 Q1038 BECMG 0500 FZFG
  • 212250Z 34002KT 6000 0200NE R23R/1800U R23L/0550D BCFG FEW005 M03/M03 Q1039 BECMG 0500 FZFG OVC001
  • 212220Z VRB02KT 4000 0200NE R23R/P2000N R23L/1300VP2000U BCFG BR NSC M03/M03 Q1039 BECMG 0500 FZFG OVC001
  • 212150Z VRB02KT 7000 FEW006 M03/M03 Q1038 BECMG 2000 BR BKN003
  • 212120Z 34004KT 9999 FEW006 M02/M02 Q1039 BECMG 2000 BR BKN003

TAF TAF EDDL
Valido dal 22 a 00 ore il 23 a 06 ore UTC


212300Z 2200/2306 VRB03KT 6000 FEW005
BECMG 2200/2203 0700 FZFG OVC001
TEMPO 2200/2209 0300 FZFG
PROB30
TEMPO 2203/2209 4000 BR OVC004
BECMG 2209/2212 4000 BR BKN005
TEMPO 2212/2218 2000 BR BKN003
BECMG 2218/2221 2500 BR BKN004
PROB30
TEMPO 2221/2306 0700 FG OVC001



MetMap, La meteo Aeronautica in un colpo d'occhio ! - Copyright ORBIFLY Dicembre 2007 - Disclaimer

ORBIFLY MET'MAP TEAM :

Programmazione e sviluppo : Alexandra Zaïnal
Concezione : Baudouin d'Aumeries
Aiuto per la programmazione : Marc-Olivier Méhu
Supporto tecnico e logistico : Manuel Goepfert
Aiuto per la traduzione : Arnaldo La Scala

Contatto : metmap@orbifly.com




FONTI E CREDITI :

   NOAA